Latest Weather Observations for Esperance Harbour

IDW60801

Issued at 1:02 am WST Saturday 7 March 2015 (issued every 30 minutes, with the page automatically refreshed every 10 minutes)

About weather observations | Map of weather stations | Latest weather observations for WA | Other Formats
Station Details ID: 109504 Name: ESPERANCE NTC AWS Lat: -33.87 Lon: 121.90 Height: 0.0 m
Data from the previous 72 hours. | See also: Recent months for locations in Western Australia
Date/Time
WST
Temp
°C
App
Temp
°C
Dew
Point
Rel
Hum
%
Delta-T
°C
Wind Press
QNH
hPa
Press
MSL
hPa
Rain
since 9 am
mm
Dir
 
Spd
km/h
Gust
km/h
Spd
kts
Gust
kts
07/01:00am 16.8 - - - - - - - - - 1020.5 1020.5 -
07/12:30am 16.9 - - - - - - - - - 1020.9 1020.8 -
07/12:00am 17.0 - - - - - - - - - 1021.1 1021.0 -
 
Date/Time
WST
Temp
°C
App
Temp
°C
Dew
Point
Rel
Hum
%
Delta-T
°C
Wind Press
QNH
hPa
Press
MSL
hPa
Rain
since 9 am
mm
Dir
 
Spd
km/h
Gust
km/h
Spd
kts
Gust
kts
06/11:30pm 17.8 - - - - - - - - - 1021.1 1021.0 -
06/11:00pm 17.5 - - - - - - - - - 1021.3 1021.2 -
06/10:30pm 18.4 - - - - - - - - - 1021.4 1021.3 -
06/10:00pm 18.6 - - - - - - - - - 1021.5 1021.4 -
06/09:30pm 18.8 - - - - - - - - - 1021.7 1021.6 -
06/09:00pm 19.0 - - - - - - - - - 1021.8 1021.7 -
06/08:30pm 19.1 - - - - - - - - - 1021.9 1021.8 -
06/08:00pm 18.9 - - - - - - - - - 1021.7 1021.6 -
06/07:30pm 19.2 - - - - - - - - - 1021.3 1021.2 -
06/07:00pm 19.2 - - - - - - - - - 1021.0 1020.9 -
06/06:30pm 19.4 - - - - - - - - - 1020.9 1020.8 -
06/06:00pm 19.8 - - - - - - - - - 1020.7 1020.7 -
06/05:30pm 20.0 - - - - - - - - - 1020.9 1020.8 -
06/05:00pm 20.2 - - - - - - - - - 1020.7 1020.7 -
06/04:30pm 20.3 - - - - - - - - - 1021.0 1020.9 -
06/04:00pm 20.0 - - - - - - - - - 1021.0 1020.9 -
06/03:30pm 20.3 - - - - - - - - - 1021.0 1020.9 -
06/03:00pm 20.2 - - - - - - - - - 1021.2 1021.1 -
06/02:30pm 20.1 - - - - - - - - - 1021.5 1021.4 -
06/02:00pm 20.0 - - - - - - - - - 1021.9 1021.8 -
06/01:30pm 20.0 - - - - - - - - - 1022.1 1022.0 -
06/01:00pm 20.3 - - - - - - - - - 1022.5 1022.4 -
06/12:30pm 20.3 - - - - - - - - - 1022.9 1022.8 -
06/12:00pm 20.4 - - - - - - - - - 1023.1 1023.0 -
06/11:30am 20.7 - - - - - - - - - 1023.4 1023.3 -
06/11:00am 20.1 - - - - - - - - - 1023.9 1023.8 -
06/10:30am 19.9 - - - - - - - - - 1024.2 1024.1 -
06/10:00am 19.3 - - - - - - - - - 1024.6 1024.5 -
06/09:30am 19.5 - - - - - - - - - 1024.8 1024.7 -
06/09:00am 18.7 - - - - - - - - - 1024.9 1024.8 -
06/08:30am 17.1 - - - - - - - - - 1024.9 1024.8 -
06/08:00am 15.8 - - - - - - - - - 1024.8 1024.7 -
06/07:30am 15.8 - - - - - - - - - 1024.8 1024.7 -
06/07:00am 16.0 - - - - - - - - - 1024.4 1024.3 -
06/06:30am 14.8 - - - - - - - - - 1024.3 1024.2 -
06/06:00am 14.7 - - - - - - - - - 1024.1 1024.0 -
06/05:30am 14.5 - - - - - - - - - 1024.1 1024.0 -
06/05:00am 14.2 - - - - - - - - - 1024.2 1024.1 -
06/04:30am 14.1 - - - - - - - - - 1024.0 1023.9 -
06/04:00am 16.2 - - - - - - - - - 1023.8 1023.7 -
06/03:30am 16.4 - - - - - - - - - 1024.0 1023.9 -
06/03:00am 16.7 - - - - - - - - - 1024.2 1024.1 -
06/02:30am 17.3 - - - - - - - - - 1024.3 1024.2 -
06/02:00am 16.9 - - - - - - - - - 1024.4 1024.3 -
06/01:30am 16.8 - - - - - - - - - 1024.9 1024.8 -
06/01:00am 17.3 - - - - - - - - - 1025.4 1025.3 -
06/12:30am 18.0 - - - - - - - - - 1025.4 1025.3 -
06/12:00am 18.2 - - - - - - - - - 1025.5 1025.4 -
 
Date/Time
WST
Temp
°C
App
Temp
°C
Dew
Point
Rel
Hum
%
Delta-T
°C
Wind Press
QNH
hPa
Press
MSL
hPa
Rain
since 9 am
mm
Dir
 
Spd
km/h
Gust
km/h
Spd
kts
Gust
kts
05/11:30pm 18.2 - - - - - - - - - 1025.4 1025.3 -
05/11:00pm 18.1 - - - - - - - - - 1025.7 1025.6 -
05/10:30pm 18.3 - - - - - - - - - 1026.1 1026.0 -
05/10:00pm 18.6 - - - - - - - - - 1026.3 1026.2 -
05/09:30pm 19.0 - - - - - - - - - 1026.4 1026.3 -
05/09:00pm 19.4 - - - - - - - - - 1026.5 1026.4 -
05/08:30pm 19.5 - - - - - - - - - 1026.3 1026.2 -
05/08:00pm 19.7 - - - - - - - - - 1026.1 1026.0 -
05/07:30pm 19.5 - - - - - - - - - 1025.7 1025.6 -
05/07:00pm 19.6 - - - - - - - - - 1025.6 1025.5 -
05/06:30pm 19.9 - - - - - - - - - 1025.5 1025.4 -
05/06:00pm 20.3 - - - - - - - - - 1025.1 1025.0 -
05/05:30pm 20.6 - - - - - - - - - 1025.1 1025.0 -
05/05:00pm 20.9 - - - - - - - - - 1024.9 1024.8 -
05/04:30pm 20.8 - - - - - - - - - 1025.2 1025.1 -
05/04:00pm 20.7 - - - - - - - - - 1025.1 1025.0 -
05/03:30pm 21.1 - - - - - - - - - 1025.1 1025.0 -
05/03:00pm 21.0 - - - - - - - - - 1025.2 1025.1 -
05/02:30pm 21.1 - - - - - - - - - 1025.5 1025.4 -
05/02:00pm 21.1 - - - - - - - - - 1025.7 1025.6 -
05/01:30pm 20.4 - - - - - - - - - 1026.0 1025.9 -
05/01:00pm 20.6 - - - - - - - - - 1026.4 1026.3 -
05/12:30pm 20.2 - - - - - - - - - 1026.6 1026.5 -
05/12:00pm 20.2 - - - - - - - - - 1026.7 1026.6 -
05/11:30am 20.2 - - - - - - - - - 1027.1 1027.0 -
05/11:00am 20.4 - - - - - - - - - 1027.3 1027.2 -
05/10:30am 20.6 - - - - - - - - - 1027.6 1027.5 -
05/10:00am 21.4 - - - - - - - - - 1027.9 1027.8 -
05/09:30am 20.3 - - - - - - - - - 1028.1 1028.0 -
05/09:00am 20.1 - - - - - - - - - 1028.1 1028.0 -
05/08:30am 19.5 - - - - - - - - - 1028.2 1028.1 -
05/08:00am 19.4 - - - - - - - - - 1028.1 1028.0 -
05/07:30am 19.5 - - - - - - - - - 1027.9 1027.8 -
05/07:00am 19.3 - - - - - - - - - 1027.7 1027.6 -
05/06:30am 19.4 - - - - - - - - - 1027.4 1027.3 -
05/06:00am 19.4 - - - - - - - - - 1027.1 1027.0 -
05/05:30am 19.1 - - - - - - - - - 1026.7 1026.6 -
05/05:00am 19.1 - - - - - - - - - 1026.3 1026.2 -
05/04:30am 18.6 - - - - - - - - - 1026.1 1026.0 -
05/04:00am 19.4 - - - - - - - - - 1026.1 1026.0 -
05/03:30am 19.3 - - - - - - - - - 1026.1 1026.0 -
05/03:00am 19.6 - - - - - - - - - 1026.1 1026.0 -
05/02:30am 19.4 - - - - - - - - - 1026.0 1025.9 -
05/02:00am 19.5 - - - - - - - - - 1026.0 1025.9 -
05/01:30am 19.3 - - - - - - - - - 1026.1 1026.0 -
05/01:00am 19.2 - - - - - - - - - 1026.5 1026.4 -
05/12:30am 19.6 - - - - - - - - - 1026.7 1026.6 -
05/12:00am 20.1 - - - - - - - - - 1026.9 1026.8 -
 
Date/Time
WST
Temp
°C
App
Temp
°C
Dew
Point
Rel
Hum
%
Delta-T
°C
Wind Press
QNH
hPa
Press
MSL
hPa
Rain
since 9 am
mm
Dir
 
Spd
km/h
Gust
km/h
Spd
kts
Gust
kts
04/11:30pm 19.7 - - - - - - - - - 1026.8 1026.7 -
04/11:00pm 19.9 - - - - - - - - - 1026.9 1026.8 -
04/10:30pm 19.8 - - - - - - - - - 1027.2 1027.1 -
04/10:00pm 19.9 - - - - - - - - - 1027.3 1027.2 -
04/09:30pm 19.8 - - - - - - - - - 1027.5 1027.4 -
04/09:00pm 20.0 - - - - - - - - - 1027.3 1027.2 -
04/08:30pm 19.8 - - - - - - - - - 1027.2 1027.1 -
04/08:00pm 19.9 - - - - - - - - - 1026.9 1026.8 -
04/07:30pm 19.8 - - - - - - - - - 1026.7 1026.6 -
04/07:00pm 19.8 - - - - - - - - - 1026.5 1026.4 -
04/06:30pm 19.7 - - - - - - - - - 1026.3 1026.2 -
04/06:00pm 19.6 - - - - - - - - - 1026.0 1025.9 -
04/05:30pm 20.1 - - - - - - - - - 1025.6 1025.5 -
04/05:00pm 20.2 - - - - - - - - - 1025.6 1025.5 -
04/04:30pm 20.4 - - - - - - - - - 1025.1 1025.0 -
04/04:00pm 20.6 - - - - - - - - - 1024.9 1024.8 -
04/03:30pm 20.6 - - - - - - - - - 1024.9 1024.8 -
04/03:00pm 20.5 - - - - - - - - - 1024.8 1024.7 -
04/02:30pm 20.7 - - - - - - - - - 1024.8 1024.7 -
04/02:00pm 20.7 - - - - - - - - - 1024.8 1024.7 -
04/01:30pm 20.8 - - - - - - - - - 1024.8 1024.7 -
04/01:00pm 20.4 - - - - - - - - - 1025.2 1025.1 -
04/12:30pm 20.3 - - - - - - - - - 1025.3 1025.2 -
04/12:00pm 20.2 - - - - - - - - - 1025.5 1025.4 -
04/11:30am 20.1 - - - - - - - - - 1025.7 1025.6 -
04/11:00am 20.0 - - - - - - - - - 1026.1 1026.0 -
04/10:30am 19.9 - - - - - - - - - 1026.3 1026.2 -
04/10:00am 19.9 - - - - - - - - - 1026.5 1026.4 -
04/09:30am 20.1 - - - - - - - - - 1026.2 1026.1 -
04/09:00am 19.8 - - - - - - - - - 1026.0 1025.9 -
04/08:30am 19.5 - - - - - - - - - 1026.0 1025.9 -
04/08:00am 19.4 - - - - - - - - - 1025.4 1025.3 -
04/07:30am 19.1 - - - - - - - - - 1025.2 1025.1 -
04/07:00am 18.8 - - - - - - - - - 1024.9 1024.8 -
04/06:30am 18.8 - - - - - - - - - 1024.4 1024.3 -
04/06:00am 19.0 - - - - - - - - - 1024.2 1024.1 -
04/05:30am 19.2 - - - - - - - - - 1024.0 1023.9 -
04/05:00am 18.3 - - - - - - - - - 1023.4 1023.3 -
04/04:30am 18.4 - - - - - - - - - 1023.2 1023.1 -
04/04:00am 18.5 - - - - - - - - - 1022.9 1022.8 -
04/03:30am 19.1 - - - - - - - - - 1023.0 1022.9 -
04/03:00am 19.1 - - - - - - - - - 1022.8 1022.7 -
04/02:30am 19.2 - - - - - - - - - 1022.9 1022.8 -
04/02:00am 19.2 - - - - - - - - - 1022.8 1022.7 -
04/01:30am 19.3 - - - - - - - - - 1022.9 1022.8 -

Other Formats:

Comma delimited format used in spreadsheet applications
http://www.bom.gov.au/fwo/IDW60801/IDW60801.95648.axf

JavaScript Object Notation format (JSON) in row-major order
http://www.bom.gov.au/fwo/IDW60801/IDW60801.95648.json